sensor_id;sensor_type;location;lat;lon;timestamp;pressure;altitude;pressure_sealevel;temperature;humidity
75555;BME280;66087;53.126;17.960;2023-08-07T00:00:34;99066.55;;;13.55;91.81
75555;BME280;66087;53.126;17.960;2023-08-07T00:03:20;99065.16;;;13.55;91.71
75555;BME280;66087;53.126;17.960;2023-08-07T00:05:49;99070.90;;;13.54;91.66
75555;BME280;66087;53.126;17.960;2023-08-07T00:08:21;99069.20;;;13.54;91.69
75555;BME280;66087;53.126;17.960;2023-08-07T00:10:48;99063.44;;;13.54;91.68
75555;BME280;66087;53.126;17.960;2023-08-07T00:13:16;99067.63;;;13.54;91.74
75555;BME280;66087;53.126;17.960;2023-08-07T00:15:45;99075.83;;;13.55;91.56
75555;BME280;66087;53.126;17.960;2023-08-07T00:18:12;99078.38;;;13.56;91.52
75555;BME280;66087;53.126;17.960;2023-08-07T00:20:41;99079.27;;;13.55;91.41
75555;BME280;66087;53.126;17.960;2023-08-07T00:23:10;99079.22;;;13.55;91.34
75555;BME280;66087;53.126;17.960;2023-08-07T00:25:40;99082.39;;;13.56;91.36
75555;BME280;66087;53.126;17.960;2023-08-07T00:28:07;99086.50;;;13.57;91.33
75555;BME280;66087;53.126;17.960;2023-08-07T00:30:41;99087.67;;;13.59;91.23
75555;BME280;66087;53.126;17.960;2023-08-07T00:33:12;99091.79;;;13.61;91.20
75555;BME280;66087;53.126;17.960;2023-08-07T00:35:41;99083.02;;;13.62;91.03
75555;BME280;66087;53.126;17.960;2023-08-07T00:38:08;99076.37;;;13.60;91.14
75555;BME280;66087;53.126;17.960;2023-08-07T00:40:39;99076.08;;;13.58;91.16
75555;BME280;66087;53.126;17.960;2023-08-07T00:43:10;99063.95;;;13.51;91.39
75555;BME280;66087;53.126;17.960;2023-08-07T00:45:41;99064.95;;;13.53;91.35
75555;BME280;66087;53.126;17.960;2023-08-07T00:48:09;99062.47;;;13.53;91.46
75555;BME280;66087;53.126;17.960;2023-08-07T00:50:42;99057.81;;;13.51;91.51
75555;BME280;66087;53.126;17.960;2023-08-07T00:53:11;99061.14;;;13.48;91.50
75555;BME280;66087;53.126;17.960;2023-08-07T00:55:38;99055.99;;;13.47;91.54
75555;BME280;66087;53.126;17.960;2023-08-07T00:58:06;99056.73;;;13.46;91.62
75555;BME280;66087;53.126;17.960;2023-08-07T01:00:34;99049.02;;;13.43;91.77
75555;BME280;66087;53.126;17.960;2023-08-07T01:03:05;99051.23;;;13.45;91.80
75555;BME280;66087;53.126;17.960;2023-08-07T01:05:34;99057.84;;;13.42;91.74
75555;BME280;66087;53.126;17.960;2023-08-07T01:08:02;99057.02;;;13.38;92.00
75555;BME280;66087;53.126;17.960;2023-08-07T01:11:00;99058.27;;;13.36;91.98
75555;BME280;66087;53.126;17.960;2023-08-07T01:13:48;99049.36;;;13.35;92.05
75555;BME280;66087;53.126;17.960;2023-08-07T01:16:28;99043.34;;;13.34;92.35
75555;BME280;66087;53.126;17.960;2023-08-07T01:19:01;99040.81;;;13.35;92.09
75555;BME280;66087;53.126;17.960;2023-08-07T01:21:29;99044.52;;;13.36;91.99
75555;BME280;66087;53.126;17.960;2023-08-07T01:23:59;99050.95;;;13.35;92.03
75555;BME280;66087;53.126;17.960;2023-08-07T01:26:38;99052.06;;;13.36;91.85
75555;BME280;66087;53.126;17.960;2023-08-07T01:29:17;99055.14;;;13.38;91.73
75555;BME280;66087;53.126;17.960;2023-08-07T01:31:57;99053.21;;;13.39;91.74
75555;BME280;66087;53.126;17.960;2023-08-07T01:34:25;99065.02;;;13.41;91.68
75555;BME280;66087;53.126;17.960;2023-08-07T01:37:13;99062.71;;;13.40;91.68
75555;BME280;66087;53.126;17.960;2023-08-07T01:39:49;99063.47;;;13.40;91.70
75555;BME280;66087;53.126;17.960;2023-08-07T01:42:18;99060.97;;;13.37;91.80
75555;BME280;66087;53.126;17.960;2023-08-07T01:44:45;99062.56;;;13.40;91.74
75555;BME280;66087;53.126;17.960;2023-08-07T01:47:12;99061.02;;;13.41;91.71
75555;BME280;66087;53.126;17.960;2023-08-07T01:49:39;99054.70;;;13.41;91.53
75555;BME280;66087;53.126;17.960;2023-08-07T01:52:09;99052.43;;;13.43;91.55
75555;BME280;66087;53.126;17.960;2023-08-07T01:54:38;99054.31;;;13.42;91.40
75555;BME280;66087;53.126;17.960;2023-08-07T01:57:05;99050.64;;;13.43;91.44
75555;BME280;66087;53.126;17.960;2023-08-07T01:59:32;99050.02;;;13.41;91.37
75555;BME280;66087;53.126;17.960;2023-08-07T02:01:59;99052.01;;;13.40;91.37
75555;BME280;66087;53.126;17.960;2023-08-07T02:04:30;99047.55;;;13.39;91.45
75555;BME280;66087;53.126;17.960;2023-08-07T02:06:59;99045.17;;;13.36;91.41
75555;BME280;66087;53.126;17.960;2023-08-07T02:09:31;99045.60;;;13.39;91.36
75555;BME280;66087;53.126;17.960;2023-08-07T02:11:57;99041.16;;;13.37;91.41
75555;BME280;66087;53.126;17.960;2023-08-07T02:14:24;99042.45;;;13.36;91.41
75555;BME280;66087;53.126;17.960;2023-08-07T02:16:51;99046.30;;;13.36;91.53
75555;BME280;66087;53.126;17.960;2023-08-07T02:19:18;99046.11;;;13.36;91.45
75555;BME280;66087;53.126;17.960;2023-08-07T02:21:49;99044.20;;;13.37;91.39
75555;BME280;66087;53.126;17.960;2023-08-07T02:24:15;99036.91;;;13.33;91.34
75555;BME280;66087;53.126;17.960;2023-08-07T02:26:44;99045.58;;;13.34;91.50
75555;BME280;66087;53.126;17.960;2023-08-07T02:29:11;99047.30;;;13.31;91.52
75555;BME280;66087;53.126;17.960;2023-08-07T02:31:37;99031.50;;;13.26;91.53
75555;BME280;66087;53.126;17.960;2023-08-07T02:34:06;99034.55;;;13.26;91.53
75555;BME280;66087;53.126;17.960;2023-08-07T02:36:33;99040.11;;;13.27;91.61
75555;BME280;66087;53.126;17.960;2023-08-07T02:39:01;99038.33;;;13.27;91.67
75555;BME280;66087;53.126;17.960;2023-08-07T02:41:32;99039.18;;;13.25;91.60
75555;BME280;66087;53.126;17.960;2023-08-07T02:44:01;99032.48;;;13.25;91.40
75555;BME280;66087;53.126;17.960;2023-08-07T02:46:31;99025.53;;;13.25;91.44
75555;BME280;66087;53.126;17.960;2023-08-07T02:48:58;99024.90;;;13.25;91.31
75555;BME280;66087;53.126;17.960;2023-08-07T02:51:25;99028.23;;;13.26;91.18
75555;BME280;66087;53.126;17.960;2023-08-07T02:53:52;99033.17;;;13.25;91.24
75555;BME280;66087;53.126;17.960;2023-08-07T02:56:19;99035.85;;;13.25;91.28
75555;BME280;66087;53.126;17.960;2023-08-07T02:58:48;99035.79;;;13.24;91.17
75555;BME280;66087;53.126;17.960;2023-08-07T03:01:16;99041.16;;;13.24;91.19
75555;BME280;66087;53.126;17.960;2023-08-07T03:03:44;99041.29;;;13.26;91.13
75555;BME280;66087;53.126;17.960;2023-08-07T03:06:13;99038.01;;;13.25;91.17
75555;BME280;66087;53.126;17.960;2023-08-07T03:08:40;99040.61;;;13.25;91.04
75555;BME280;66087;53.126;17.960;2023-08-07T03:11:09;99046.71;;;13.24;91.15
75555;BME280;66087;53.126;17.960;2023-08-07T03:13:41;99048.77;;;13.23;91.09
75555;BME280;66087;53.126;17.960;2023-08-07T03:16:09;99051.98;;;13.20;91.24
75555;BME280;66087;53.126;17.960;2023-08-07T03:18:36;99056.88;;;13.20;91.30
75555;BME280;66087;53.126;17.960;2023-08-07T03:21:04;99060.75;;;13.20;91.50
75555;BME280;66087;53.126;17.960;2023-08-07T03:23:32;99063.42;;;13.20;91.32
75555;BME280;66087;53.126;17.960;2023-08-07T03:26:04;99068.86;;;13.21;91.22
75555;BME280;66087;53.126;17.960;2023-08-07T03:28:33;99073.33;;;13.21;91.18
75555;BME280;66087;53.126;17.960;2023-08-07T03:31:02;99080.12;;;13.20;90.96
75555;BME280;66087;53.126;17.960;2023-08-07T03:33:34;99081.34;;;13.20;91.01
75555;BME280;66087;53.126;17.960;2023-08-07T03:36:01;99085.91;;;13.20;91.15
75555;BME280;66087;53.126;17.960;2023-08-07T03:38:28;99084.73;;;13.20;91.00
75555;BME280;66087;53.126;17.960;2023-08-07T03:40:57;99090.21;;;13.21;90.95
75555;BME280;66087;53.126;17.960;2023-08-07T03:43:29;99090.00;;;13.21;90.84
75555;BME280;66087;53.126;17.960;2023-08-07T03:46:01;99087.31;;;13.20;90.88
75555;BME280;66087;53.126;17.960;2023-08-07T03:48:28;99091.06;;;13.20;90.82
75555;BME280;66087;53.126;17.960;2023-08-07T03:51:05;99092.04;;;13.21;90.85
75555;BME280;66087;53.126;17.960;2023-08-07T03:53:39;99092.58;;;13.21;90.80
75555;BME280;66087;53.126;17.960;2023-08-07T03:56:08;99100.05;;;13.19;90.75
75555;BME280;66087;53.126;17.960;2023-08-07T03:58:35;99094.16;;;13.18;90.70
75555;BME280;66087;53.126;17.960;2023-08-07T04:01:07;99090.97;;;13.17;90.76
75555;BME280;66087;53.126;17.960;2023-08-07T04:03:37;99083.06;;;13.16;90.76
75555;BME280;66087;53.126;17.960;2023-08-07T04:06:07;99084.30;;;13.16;90.82
75555;BME280;66087;53.126;17.960;2023-08-07T04:08:35;99093.02;;;13.15;90.88
75555;BME280;66087;53.126;17.960;2023-08-07T04:11:04;99094.54;;;13.14;90.84
75555;BME280;66087;53.126;17.960;2023-08-07T04:13:33;99097.48;;;13.15;90.98
75555;BME280;66087;53.126;17.960;2023-08-07T04:16:01;99103.96;;;13.15;91.04
75555;BME280;66087;53.126;17.960;2023-08-07T04:18:35;99107.96;;;13.12;90.99
75555;BME280;66087;53.126;17.960;2023-08-07T04:21:03;99107.88;;;13.09;91.19
75555;BME280;66087;53.126;17.960;2023-08-07T04:23:34;99111.46;;;13.05;91.34
75555;BME280;66087;53.126;17.960;2023-08-07T04:26:03;99107.40;;;13.06;91.35
75555;BME280;66087;53.126;17.960;2023-08-07T04:28:35;99109.64;;;13.06;91.48
75555;BME280;66087;53.126;17.960;2023-08-07T04:31:01;99114.42;;;13.07;91.46
75555;BME280;66087;53.126;17.960;2023-08-07T04:33:28;99120.04;;;13.07;91.39
75555;BME280;66087;53.126;17.960;2023-08-07T04:35:57;99117.44;;;13.08;91.26
75555;BME280;66087;53.126;17.960;2023-08-07T04:38:25;99108.73;;;13.09;91.29
75555;BME280;66087;53.126;17.960;2023-08-07T04:40:52;99103.21;;;13.12;91.11
75555;BME280;66087;53.126;17.960;2023-08-07T04:43:26;99101.95;;;13.14;91.16
75555;BME280;66087;53.126;17.960;2023-08-07T04:46:14;99113.96;;;13.21;91.04
75555;BME280;66087;53.126;17.960;2023-08-07T04:48:45;99121.22;;;13.21;90.97
75555;BME280;66087;53.126;17.960;2023-08-07T04:51:12;99129.64;;;13.18;90.72
75555;BME280;66087;53.126;17.960;2023-08-07T04:53:41;99126.47;;;13.16;90.94
75555;BME280;66087;53.126;17.960;2023-08-07T04:56:09;99130.60;;;13.17;90.90
75555;BME280;66087;53.126;17.960;2023-08-07T04:58:38;99135.73;;;13.15;90.87
75555;BME280;66087;53.126;17.960;2023-08-07T05:01:05;99138.68;;;13.16;90.87
75555;BME280;66087;53.126;17.960;2023-08-07T05:03:34;99142.83;;;13.15;90.86
75555;BME280;66087;53.126;17.960;2023-08-07T05:06:01;99142.75;;;13.14;90.82
75555;BME280;66087;53.126;17.960;2023-08-07T05:08:28;99143.29;;;13.16;90.91
75555;BME280;66087;53.126;17.960;2023-08-07T05:10:57;99146.42;;;13.17;90.86
75555;BME280;66087;53.126;17.960;2023-08-07T05:13:32;99156.27;;;13.18;90.79
75555;BME280;66087;53.126;17.960;2023-08-07T05:16:01;99158.23;;;13.20;90.69
75555;BME280;66087;53.126;17.960;2023-08-07T05:18:30;99158.03;;;13.20;90.83
75555;BME280;66087;53.126;17.960;2023-08-07T05:21:03;99162.02;;;13.20;90.77
75555;BME280;66087;53.126;17.960;2023-08-07T05:23:29;99162.19;;;13.22;90.88
75555;BME280;66087;53.126;17.960;2023-08-07T05:25:56;99165.61;;;13.22;90.68
75555;BME280;66087;53.126;17.960;2023-08-07T05:28:23;99165.43;;;13.23;90.66
75555;BME280;66087;53.126;17.960;2023-08-07T05:30:50;99169.62;;;13.23;90.67
75555;BME280;66087;53.126;17.960;2023-08-07T05:33:17;99172.58;;;13.26;90.65
75555;BME280;66087;53.126;17.960;2023-08-07T05:35:46;99172.36;;;13.32;90.66
75555;BME280;66087;53.126;17.960;2023-08-07T05:38:14;99181.63;;;13.36;90.42
75555;BME280;66087;53.126;17.960;2023-08-07T05:40:41;99177.13;;;13.35;90.07
75555;BME280;66087;53.126;17.960;2023-08-07T05:43:09;99186.16;;;13.34;89.94
75555;BME280;66087;53.126;17.960;2023-08-07T05:45:37;99179.25;;;13.34;90.41
75555;BME280;66087;53.126;17.960;2023-08-07T05:48:06;99179.33;;;13.33;90.32
75555;BME280;66087;53.126;17.960;2023-08-07T05:50:48;99181.73;;;13.40;89.93
75555;BME280;66087;53.126;17.960;2023-08-07T05:53:15;99185.55;;;13.44;89.76
75555;BME280;66087;53.126;17.960;2023-08-07T05:55:42;99190.71;;;13.52;89.56
75555;BME280;66087;53.126;17.960;2023-08-07T05:58:20;99187.13;;;13.63;89.65
75555;BME280;66087;53.126;17.960;2023-08-07T06:00:55;99188.21;;;13.72;89.45
75555;BME280;66087;53.126;17.960;2023-08-07T06:03:35;99190.13;;;13.78;89.18
75555;BME280;66087;53.126;17.960;2023-08-07T06:06:01;99193.49;;;13.78;88.74
75555;BME280;66087;53.126;17.960;2023-08-07T06:08:31;99193.16;;;13.78;88.83
75555;BME280;66087;53.126;17.960;2023-08-07T06:10:58;99201.02;;;13.76;88.32
75555;BME280;66087;53.126;17.960;2023-08-07T06:13:25;99199.45;;;13.77;88.83
75555;BME280;66087;53.126;17.960;2023-08-07T06:15:51;99199.48;;;13.83;88.81
75555;BME280;66087;53.126;17.960;2023-08-07T06:18:25;99207.34;;;13.88;88.52
75555;BME280;66087;53.126;17.960;2023-08-07T06:20:51;99207.52;;;13.90;88.02
75555;BME280;66087;53.126;17.960;2023-08-07T06:23:20;99204.70;;;13.91;87.93
75555;BME280;66087;53.126;17.960;2023-08-07T06:25:46;99206.39;;;13.98;88.23
75555;BME280;66087;53.126;17.960;2023-08-07T06:28:13;99208.36;;;14.02;87.64
75555;BME280;66087;53.126;17.960;2023-08-07T06:30:41;99210.61;;;14.03;86.99
75555;BME280;66087;53.126;17.960;2023-08-07T06:33:09;99211.92;;;14.08;87.16
75555;BME280;66087;53.126;17.960;2023-08-07T06:35:39;99211.34;;;14.11;86.59
75555;BME280;66087;53.126;17.960;2023-08-07T06:38:09;99209.00;;;14.19;86.23
75555;BME280;66087;53.126;17.960;2023-08-07T06:40:37;99219.23;;;14.38;86.06
75555;BME280;66087;53.126;17.960;2023-08-07T06:43:06;99225.34;;;14.61;85.15
75555;BME280;66087;53.126;17.960;2023-08-07T06:45:33;99223.83;;;14.76;84.63
75555;BME280;66087;53.126;17.960;2023-08-07T06:48:00;99226.59;;;14.83;84.83
75555;BME280;66087;53.126;17.960;2023-08-07T06:50:42;99227.48;;;14.85;84.45
75555;BME280;66087;53.126;17.960;2023-08-07T06:53:09;99231.43;;;14.79;84.14
75555;BME280;66087;53.126;17.960;2023-08-07T06:55:36;99233.44;;;14.69;84.14
75555;BME280;66087;53.126;17.960;2023-08-07T06:58:03;99234.02;;;14.59;84.51
75555;BME280;66087;53.126;17.960;2023-08-07T07:00:34;99235.85;;;14.57;84.48
75555;BME280;66087;53.126;17.960;2023-08-07T07:03:04;99242.55;;;14.58;84.17
75555;BME280;66087;53.126;17.960;2023-08-07T07:05:32;99240.59;;;14.55;83.90
75555;BME280;66087;53.126;17.960;2023-08-07T07:08:00;99243.70;;;14.55;84.53
75555;BME280;66087;53.126;17.960;2023-08-07T07:10:27;99252.86;;;14.59;84.05
75555;BME280;66087;53.126;17.960;2023-08-07T07:12:54;99252.25;;;14.63;83.57
75555;BME280;66087;53.126;17.960;2023-08-07T07:15:21;99257.04;;;14.61;83.91
75555;BME280;66087;53.126;17.960;2023-08-07T07:17:53;99256.53;;;14.64;84.28
75555;BME280;66087;53.126;17.960;2023-08-07T07:20:20;99266.77;;;14.73;84.04
75555;BME280;66087;53.126;17.960;2023-08-07T07:22:47;99265.88;;;14.79;83.64
75555;BME280;66087;53.126;17.960;2023-08-07T07:25:19;99273.81;;;14.81;84.03
75555;BME280;66087;53.126;17.960;2023-08-07T07:27:45;99274.48;;;14.88;84.06
75555;BME280;66087;53.126;17.960;2023-08-07T07:30:12;99272.67;;;14.90;82.94
75555;BME280;66087;53.126;17.960;2023-08-07T07:32:40;99271.60;;;14.91;83.58
75555;BME280;66087;53.126;17.960;2023-08-07T07:35:07;99266.70;;;14.87;82.95
75555;BME280;66087;53.126;17.960;2023-08-07T07:37:39;99282.91;;;14.94;82.38
75555;BME280;66087;53.126;17.960;2023-08-07T07:40:08;99280.94;;;15.01;82.75
75555;BME280;66087;53.126;17.960;2023-08-07T07:42:37;99282.27;;;15.11;81.60
75555;BME280;66087;53.126;17.960;2023-08-07T07:45:08;99279.92;;;15.23;81.70
75555;BME280;66087;53.126;17.960;2023-08-07T07:47:35;99284.81;;;15.38;81.11
75555;BME280;66087;53.126;17.960;2023-08-07T07:50:08;99290.70;;;15.56;80.49
75555;BME280;66087;53.126;17.960;2023-08-07T07:52:37;99296.16;;;15.68;79.16
75555;BME280;66087;53.126;17.960;2023-08-07T07:55:04;99294.17;;;15.79;78.36
75555;BME280;66087;53.126;17.960;2023-08-07T07:57:36;99295.66;;;15.93;77.43
75555;BME280;66087;53.126;17.960;2023-08-07T08:00:04;99302.67;;;16.16;76.54
75555;BME280;66087;53.126;17.960;2023-08-07T08:02:39;99298.83;;;16.39;75.84
75555;BME280;66087;53.126;17.960;2023-08-07T08:05:07;99307.00;;;16.58;75.82
75555;BME280;66087;53.126;17.960;2023-08-07T08:07:34;99293.03;;;16.80;75.64
75555;BME280;66087;53.126;17.960;2023-08-07T08:10:01;99299.25;;;16.97;73.44
75555;BME280;66087;53.126;17.960;2023-08-07T08:12:35;99301.73;;;17.09;72.41
75555;BME280;66087;53.126;17.960;2023-08-07T08:15:03;99290.35;;;17.10;72.48
75555;BME280;66087;53.126;17.960;2023-08-07T08:17:41;99297.84;;;17.31;73.17
75555;BME280;66087;53.126;17.960;2023-08-07T08:20:11;99301.48;;;17.49;71.79
75555;BME280;66087;53.126;17.960;2023-08-07T08:22:52;99298.41;;;17.58;71.09
75555;BME280;66087;53.126;17.960;2023-08-07T08:25:21;99302.09;;;17.67;70.64
75555;BME280;66087;53.126;17.960;2023-08-07T08:27:50;99305.70;;;17.78;69.66
75555;BME280;66087;53.126;17.960;2023-08-07T08:30:18;99308.48;;;17.81;68.11
75555;BME280;66087;53.126;17.960;2023-08-07T08:32:45;99304.98;;;17.82;67.83
75555;BME280;66087;53.126;17.960;2023-08-07T08:35:15;99328.35;;;17.83;66.75
75555;BME280;66087;53.126;17.960;2023-08-07T08:37:42;99314.70;;;17.82;66.86
75555;BME280;66087;53.126;17.960;2023-08-07T08:40:10;99316.84;;;17.88;67.24
75555;BME280;66087;53.126;17.960;2023-08-07T08:42:39;99318.17;;;18.02;66.54
75555;BME280;66087;53.126;17.960;2023-08-07T08:45:08;99310.04;;;18.15;65.88
75555;BME280;66087;53.126;17.960;2023-08-07T08:47:39;99321.52;;;18.21;65.94
75555;BME280;66087;53.126;17.960;2023-08-07T08:50:09;99321.05;;;18.27;64.98
75555;BME280;66087;53.126;17.960;2023-08-07T08:52:44;99321.88;;;18.32;64.39
75555;BME280;66087;53.126;17.960;2023-08-07T08:55:19;99336.79;;;18.42;62.15
75555;BME280;66087;53.126;17.960;2023-08-07T08:57:48;99317.33;;;18.42;62.50
75555;BME280;66087;53.126;17.960;2023-08-07T09:00:16;99321.61;;;18.49;62.18
75555;BME280;66087;53.126;17.960;2023-08-07T09:02:49;99322.34;;;18.62;61.99
75555;BME280;66087;53.126;17.960;2023-08-07T09:05:18;99326.23;;;18.73;61.86
75555;BME280;66087;53.126;17.960;2023-08-07T09:07:47;99317.05;;;18.89;61.07
75555;BME280;66087;53.126;17.960;2023-08-07T09:10:15;99332.66;;;18.99;60.97
75555;BME280;66087;53.126;17.960;2023-08-07T09:12:54;99317.52;;;18.91;59.88
75555;BME280;66087;53.126;17.960;2023-08-07T09:15:29;99333.28;;;19.07;60.71
75555;BME280;66087;53.126;17.960;2023-08-07T09:18:01;99334.46;;;19.23;59.68
75555;BME280;66087;53.126;17.960;2023-08-07T09:20:30;99331.09;;;19.17;59.69
75555;BME280;66087;53.126;17.960;2023-08-07T09:22:57;99328.04;;;18.93;60.09
75555;BME280;66087;53.126;17.960;2023-08-07T09:25:34;99334.81;;;18.93;58.85
75555;BME280;66087;53.126;17.960;2023-08-07T09:28:20;99359.33;;;18.90;58.48
75555;BME280;66087;53.126;17.960;2023-08-07T09:30:48;99345.45;;;18.85;58.00
75555;BME280;66087;53.126;17.960;2023-08-07T09:33:15;99344.12;;;18.77;58.26
75555;BME280;66087;53.126;17.960;2023-08-07T09:35:47;99342.44;;;18.82;58.94
75555;BME280;66087;53.126;17.960;2023-08-07T09:38:14;99350.48;;;18.79;59.63
75555;BME280;66087;53.126;17.960;2023-08-07T09:40:42;99329.86;;;18.80;60.37
75555;BME280;66087;53.126;17.960;2023-08-07T09:43:34;99343.23;;;18.84;59.45
75555;BME280;66087;53.126;17.960;2023-08-07T09:46:07;99338.81;;;18.97;58.48
75555;BME280;66087;53.126;17.960;2023-08-07T09:48:43;99360.81;;;19.18;57.80
75555;BME280;66087;53.126;17.960;2023-08-07T09:51:10;99342.27;;;19.42;56.15
75555;BME280;66087;53.126;17.960;2023-08-07T09:53:37;99343.67;;;19.41;56.38
75555;BME280;66087;53.126;17.960;2023-08-07T09:56:04;99359.77;;;19.44;55.34
75555;BME280;66087;53.126;17.960;2023-08-07T09:58:47;99350.09;;;19.25;55.64
75555;BME280;66087;53.126;17.960;2023-08-07T10:01:16;99349.92;;;19.04;56.44
75555;BME280;66087;53.126;17.960;2023-08-07T10:03:44;99347.85;;;18.86;57.19
75555;BME280;66087;53.126;17.960;2023-08-07T10:06:12;99343.45;;;18.72;57.91
75555;BME280;66087;53.126;17.960;2023-08-07T10:08:39;99347.20;;;18.58;57.94
75555;BME280;66087;53.126;17.960;2023-08-07T10:11:08;99346.56;;;18.50;58.96
75555;BME280;66087;53.126;17.960;2023-08-07T10:13:37;99364.70;;;18.49;58.94
75555;BME280;66087;53.126;17.960;2023-08-07T10:16:27;99363.27;;;18.45;59.03
75555;BME280;66087;53.126;17.960;2023-08-07T10:18:54;99369.65;;;18.48;59.46
75555;BME280;66087;53.126;17.960;2023-08-07T10:21:25;99364.25;;;18.49;59.58
75555;BME280;66087;53.126;17.960;2023-08-07T10:23:53;99352.30;;;18.50;60.01
75555;BME280;66087;53.126;17.960;2023-08-07T10:26:22;99350.66;;;18.59;60.28
75555;BME280;66087;53.126;17.960;2023-08-07T10:28:51;99350.41;;;18.62;60.40
75555;BME280;66087;53.126;17.960;2023-08-07T10:31:22;99350.91;;;18.60;60.41
75555;BME280;66087;53.126;17.960;2023-08-07T10:33:50;99357.45;;;18.48;60.70
75555;BME280;66087;53.126;17.960;2023-08-07T10:36:32;99363.14;;;18.30;61.28
75555;BME280;66087;53.126;17.960;2023-08-07T10:39:09;99370.68;;;18.18;60.96
75555;BME280;66087;53.126;17.960;2023-08-07T10:41:44;99378.15;;;18.06;61.43
75555;BME280;66087;53.126;17.960;2023-08-07T10:44:23;99383.12;;;17.88;62.03
75555;BME280;66087;53.126;17.960;2023-08-07T10:46:54;99407.73;;;17.65;63.23
75555;BME280;66087;53.126;17.960;2023-08-07T10:49:40;99428.65;;;17.30;65.48
75555;BME280;66087;53.126;17.960;2023-08-07T10:52:09;99428.97;;;16.89;67.24
75555;BME280;66087;53.126;17.960;2023-08-07T10:54:49;99435.68;;;16.60;68.27
75555;BME280;66087;53.126;17.960;2023-08-07T10:57:18;99429.36;;;16.50;69.90
75555;BME280;66087;53.126;17.960;2023-08-07T11:00:06;99433.70;;;16.44;70.51
75555;BME280;66087;53.126;17.960;2023-08-07T11:02:37;99431.81;;;16.42;70.15
75555;BME280;66087;53.126;17.960;2023-08-07T11:05:08;99431.49;;;16.51;70.57
75555;BME280;66087;53.126;17.960;2023-08-07T11:07:40;99432.09;;;16.71;69.90
75555;BME280;66087;53.126;17.960;2023-08-07T11:10:08;99435.31;;;16.97;69.93
75555;BME280;66087;53.126;17.960;2023-08-07T11:12:35;99439.47;;;17.19;69.29
75555;BME280;66087;53.126;17.960;2023-08-07T11:15:04;99436.61;;;17.46;68.74
75555;BME280;66087;53.126;17.960;2023-08-07T11:17:32;99438.14;;;17.77;68.78
75555;BME280;66087;53.126;17.960;2023-08-07T11:20:00;99442.73;;;18.08;68.35
75555;BME280;66087;53.126;17.960;2023-08-07T11:22:27;99448.25;;;18.29;68.16
75555;BME280;66087;53.126;17.960;2023-08-07T11:24:55;99444.85;;;18.49;67.70
75555;BME280;66087;53.126;17.960;2023-08-07T11:27:23;99451.46;;;18.65;67.37
75555;BME280;66087;53.126;17.960;2023-08-07T11:29:51;99448.02;;;18.78;67.00
75555;BME280;66087;53.126;17.960;2023-08-07T11:32:20;99443.90;;;18.95;66.30
75555;BME280;66087;53.126;17.960;2023-08-07T11:34:49;99438.05;;;19.13;66.04
75555;BME280;66087;53.126;17.960;2023-08-07T11:37:20;99444.14;;;19.20;65.29
75555;BME280;66087;53.126;17.960;2023-08-07T11:39:48;99447.45;;;19.17;66.00
75555;BME280;66087;53.126;17.960;2023-08-07T11:42:15;99454.86;;;18.93;65.71
75555;BME280;66087;53.126;17.960;2023-08-07T11:44:44;99466.34;;;18.68;65.22
75555;BME280;66087;53.126;17.960;2023-08-07T11:47:12;99457.73;;;18.47;64.75
75555;BME280;66087;53.126;17.960;2023-08-07T11:49:38;99465.27;;;18.44;64.30
75555;BME280;66087;53.126;17.960;2023-08-07T11:52:07;99466.48;;;18.45;63.75
75555;BME280;66087;53.126;17.960;2023-08-07T11:54:37;99472.54;;;18.46;62.50
75555;BME280;66087;53.126;17.960;2023-08-07T11:57:15;99476.80;;;18.47;62.31
75555;BME280;66087;53.126;17.960;2023-08-07T11:59:47;99480.33;;;18.44;60.90
75555;BME280;66087;53.126;17.960;2023-08-07T12:02:16;99477.24;;;18.39;60.57
75555;BME280;66087;53.126;17.960;2023-08-07T12:04:44;99468.59;;;18.44;61.58
75555;BME280;66087;53.126;17.960;2023-08-07T12:07:11;99470.27;;;18.53;60.42
75555;BME280;66087;53.126;17.960;2023-08-07T12:09:37;99469.83;;;18.64;59.77
75555;BME280;66087;53.126;17.960;2023-08-07T12:12:10;99462.73;;;18.87;60.44
75555;BME280;66087;53.126;17.960;2023-08-07T12:14:38;99463.98;;;19.15;59.96
75555;BME280;66087;53.126;17.960;2023-08-07T12:17:09;99471.34;;;19.45;58.42
75555;BME280;66087;53.126;17.960;2023-08-07T12:19:38;99477.44;;;19.73;56.75
75555;BME280;66087;53.126;17.960;2023-08-07T12:22:09;99474.90;;;20.01;56.24
75555;BME280;66087;53.126;17.960;2023-08-07T12:24:40;99473.27;;;20.36;54.97
75555;BME280;66087;53.126;17.960;2023-08-07T12:27:11;99471.80;;;20.91;54.80
75555;BME280;66087;53.126;17.960;2023-08-07T12:29:38;99479.63;;;21.55;52.70
75555;BME280;66087;53.126;17.960;2023-08-07T12:32:05;99470.98;;;22.08;52.52
75555;BME280;66087;53.126;17.960;2023-08-07T12:34:32;99491.98;;;22.31;49.32
75555;BME280;66087;53.126;17.960;2023-08-07T12:37:01;99471.27;;;22.24;49.29
75555;BME280;66087;53.126;17.960;2023-08-07T12:39:28;99465.75;;;22.32;50.44
75555;BME280;66087;53.126;17.960;2023-08-07T12:41:54;99464.91;;;22.18;48.82
75555;BME280;66087;53.126;17.960;2023-08-07T12:44:22;99464.58;;;21.82;47.96
75555;BME280;66087;53.126;17.960;2023-08-07T12:46:49;99475.69;;;21.58;48.64
75555;BME280;66087;53.126;17.960;2023-08-07T12:49:18;99469.98;;;21.36;48.00
75555;BME280;66087;53.126;17.960;2023-08-07T12:51:45;99461.95;;;21.06;48.92
75555;BME280;66087;53.126;17.960;2023-08-07T12:54:12;99456.81;;;20.80;50.48
75555;BME280;66087;53.126;17.960;2023-08-07T12:56:41;99470.40;;;20.70;48.76
75555;BME280;66087;53.126;17.960;2023-08-07T12:59:08;99473.46;;;20.37;48.53
75555;BME280;66087;53.126;17.960;2023-08-07T13:01:34;99465.91;;;20.16;49.41
75555;BME280;66087;53.126;17.960;2023-08-07T13:04:08;99457.90;;;19.92;49.94